Terminal Aerodrome Forecast
Issued by NWS

Home | Current Version | Previous Version | Graphics & Text | Print | Product List | Glossary On
Versions: 1 2 3 4 5 6 7 8 9 10 11 12 13 14 15 16 17 18
000
FTUS43 KTOP 020520
TAFMHK
TAF
KMHK 020520Z 0206/0306 05003KT P6SM SCT030 BKN150
     FM021100 04003KT 5SM BR BKN025
      TEMPO 0211/0213 BKN009
     FM021500 04005KT P6SM BKN035=

USA.gov is the U.S. government's official web portal to all federal, state and local government web resources and services.